Time;durP1;ratioP1;P1;durP2;ratioP2;P2;SDS_P1;SDS_P2;PMS_P1;PMS_P2;Temp;Humidity;BMP_temperature;BMP_pressure;BME280_temperature;BME280_humidity;BME280_pressure;Samples;Min_cycle;Max_cycle;Signal;HPM_P1;HPM_P2
2022/09/22 00:00:32;;;;;;;4.95;1.02;;;9.80;99.90;;;;;;4903332;29;20253;-95
2022/09/22 00:03:03;;;;;;;1.15;0.85;;;9.70;99.90;;;;;;4903331;29;20183;-93
2022/09/22 00:05:28;;;;;;;1.20;1.02;;;9.70;99.90;;;;;;4903129;29;20228;-93
2022/09/22 00:07:54;;;;;;;2.58;1.08;;;9.70;99.90;;;;;;4903156;29;20597;-94
2022/09/22 00:10:21;;;;;;;2.17;1.10;;;9.70;99.90;;;;;;4902943;29;20197;-91
2022/09/22 00:12:48;;;;;;;2.17;1.00;;;9.70;99.90;;;;;;4919870;29;20174;-94
2022/09/22 00:15:15;;;;;;;5.28;1.00;;;9.70;99.90;;;;;;4902819;29;20205;-93
2022/09/22 00:17:41;;;;;;;2.08;1.08;;;9.60;99.90;;;;;;4902949;29;20255;-95
2022/09/22 00:20:07;;;;;;;3.25;1.48;;;9.60;99.90;;;;;;4903120;29;20741;-91
2022/09/22 00:22:33;;;;;;;6.78;1.38;;;9.50;99.90;;;;;;4902417;29;20186;-95
2022/09/22 00:25:01;;;;;;;3.80;1.13;;;9.50;99.90;;;;;;4887038;29;20213;-93
2022/09/22 00:27:26;;;;;;;3.33;1.30;;;9.50;99.90;;;;;;4902729;29;20274;-95
2022/09/22 00:29:52;;;;;;;5.07;1.20;;;9.50;99.90;;;;;;4902930;29;20266;-91
2022/09/22 00:32:19;;;;;;;2.85;1.00;;;9.50;99.90;;;;;;4902778;29;20190;-87
2022/09/22 00:34:45;;;;;;;8.32;1.13;;;9.50;99.90;;;;;;4902534;29;20191;-94
2022/09/22 00:37:11;;;;;;;3.70;1.25;;;9.40;99.90;;;;;;4902727;29;20593;-95
2022/09/22 00:39:36;;;;;;;2.85;1.23;;;9.40;99.90;;;;;;4919190;29;20187;-95
2022/09/22 00:42:03;;;;;;;2.28;1.10;;;9.40;99.90;;;;;;4902323;29;20243;-95
2022/09/22 00:44:31;;;;;;;1.67;1.00;;;9.40;99.90;;;;;;4902188;29;20185;-95
2022/09/22 00:47:34;;;;;;;5.35;1.35;;;9.40;99.90;;;;;;4919758;29;20210;-95
2022/09/22 00:50:00;;;;;;;2.00;1.13;;;9.30;99.90;;;;;;4903464;29;20265;-93
2022/09/22 00:52:45;;;;;;;3.92;1.50;;;9.20;99.90;;;;;;4919566;29;20217;-96
2022/09/22 00:55:27;;;;;;;1.08;0.90;;;9.10;99.90;;;;;;4902748;29;20265;-93
2022/09/22 00:57:54;;;;;;;2.50;1.20;;;9.10;99.90;;;;;;4902065;29;20689;-91
2022/09/22 01:00:20;;;;;;;3.90;1.27;;;9.20;99.90;;;;;;4901118;29;20633;-88
2022/09/22 01:02:52;;;;;;;2.35;1.25;;;9.30;99.90;;;;;;4900792;29;20195;-89
2022/09/22 01:05:20;;;;;;;2.60;1.27;;;9.30;99.90;;;;;;4918392;29;20657;-88
2022/09/22 01:07:47;;;;;;;4.78;1.40;;;9.10;99.90;;;;;;4901726;29;20194;-88
2022/09/22 01:10:13;;;;;;;5.45;1.30;;;9.10;99.90;;;;;;4901526;29;20238;-88
2022/09/22 01:12:47;;;;;;;7.88;1.63;;;9.10;99.90;;;;;;4918503;29;20170;-91
2022/09/22 01:15:19;;;;;;;4.70;1.50;;;9.10;99.90;;;;;;4918400;29;20516;-89
2022/09/22 01:17:54;;;;;;;1.55;1.27;;;9.00;99.90;;;;;;4901590;29;20626;-89
2022/09/22 01:20:54;;;;;;;3.08;1.33;;;9.00;99.90;;;;;;4901851;29;20213;-88
2022/09/22 01:23:49;;;;;;;6.03;1.73;;;8.90;99.90;;;;;;4901559;29;20520;-91
2022/09/22 01:26:41;;;;;;;5.57;1.65;;;9.00;99.90;;;;;;4902053;29;20681;-88
2022/09/22 01:30:06;;;;;;;3.95;1.60;;;9.10;99.90;;;;;;4885185;29;20502;-91
2022/09/22 01:32:42;;;;;;;2.97;1.80;;;9.10;99.90;;;;;;4878735;29;20186;-91
2022/09/22 01:35:12;;;;;;;5.03;1.38;;;9.10;99.90;;;;;;4901117;29;20189;-88
2022/09/22 01:38:24;;;;;;;3.33;2.03;;;9.10;99.90;;;;;;4901593;29;20181;-92
2022/09/22 01:41:07;;;;;;;2.72;1.95;;;9.10;99.90;;;;;;4883414;29;20191;-90
2022/09/22 01:43:35;;;;;;;4.65;1.77;;;9.30;99.90;;;;;;4901591;29;20190;-90
2022/09/22 01:46:19;;;;;;;3.00;2.00;;;9.30;99.90;;;;;;4901106;29;20530;-88
2022/09/22 01:48:49;;;;;;;4.93;1.60;;;9.30;99.90;;;;;;4901153;29;20186;-90
2022/09/22 01:51:29;;;;;;;5.20;1.70;;;9.20;99.90;;;;;;4901181;29;20199;-87
2022/09/22 01:54:15;;;;;;;2.72;1.58;;;9.20;99.90;;;;;;4901022;29;20189;-88
2022/09/22 01:56:45;;;;;;;2.63;1.65;;;9.30;99.90;;;;;;4901426;29;20197;-87
2022/09/22 01:59:13;;;;;;;6.13;1.58;;;9.30;99.90;;;;;;4901388;29;20267;-87
2022/09/22 02:01:45;;;;;;;2.95;1.55;;;9.30;99.90;;;;;;4918021;29;20171;-92
2022/09/22 02:04:30;;;;;;;8.85;1.95;;;9.30;99.90;;;;;;5329690;23;20230;-94
2022/09/22 02:07:05;;;;;;;8.55;2.10;;;9.30;99.90;;;;;;4898458;29;20226;-95
2022/09/22 02:09:33;;;;;;;7.57;2.85;;;9.40;99.90;;;;;;4919089;29;20625;-95
2022/09/22 02:12:00;;;;;;;6.28;2.47;;;9.40;99.90;;;;;;4901666;29;20189;-95
2022/09/22 02:14:26;;;;;;;5.50;2.30;;;9.50;99.90;;;;;;4920605;29;20629;-95
2022/09/22 02:16:54;;;;;;;5.32;2.47;;;9.50;99.90;;;;;;4905092;29;20190;-95
2022/09/22 02:19:38;;;;;;;3.88;2.40;;;9.50;99.90;;;;;;4921737;29;20175;-93
2022/09/22 02:22:06;;;;;;;2.15;1.85;;;9.50;99.90;;;;;;4905249;29;20206;-96
2022/09/22 02:24:41;;;;;;;6.43;2.38;;;9.40;99.90;;;;;;4904870;29;20618;-95
2022/09/22 02:27:25;;;;;;;2.90;2.28;;;9.40;99.90;;;;;;4904731;29;20225;-95
2022/09/22 02:29:57;;;;;;;4.25;2.33;;;9.40;99.90;;;;;;4905049;29;20178;-93
2022/09/22 02:32:24;;;;;;;6.57;2.70;;;9.30;99.90;;;;;;4921933;29;20175;-95
2022/09/22 02:34:52;;;;;;;8.15;2.60;;;9.30;99.90;;;;;;4930692;29;20181;-95
2022/09/22 02:37:20;;;;;;;5.10;2.25;;;9.40;99.90;;;;;;4923843;29;20182;-92
2022/09/22 02:40:08;;;;;;;4.05;2.40;;;9.40;99.90;;;;;;4923158;29;20178;-87
2022/09/22 02:43:20;;;;;;;6.07;2.50;;;9.50;99.90;;;;;;4923046;29;20189;-88
2022/09/22 02:46:09;;;;;;;5.57;2.55;;;9.40;99.90;;;;;;4907609;29;20221;-90
2022/09/22 02:48:41;;;;;;;5.90;2.60;;;9.50;99.90;;;;;;4923260;29;20245;-88
2022/09/22 02:51:08;;;;;;;4.88;2.58;;;9.50;99.90;;;;;;4909728;29;20182;-89
2022/09/22 02:53:35;;;;;;;6.05;2.42;;;9.50;99.90;;;;;;4903785;29;20697;-89
2022/09/22 02:56:03;;;;;;;6.90;2.53;;;9.50;99.90;;;;;;4904183;29;20279;-91
2022/09/22 02:58:29;;;;;;;4.30;2.38;;;9.50;99.90;;;;;;4920977;29;20179;-87
2022/09/22 03:00:55;;;;;;;5.10;2.50;;;9.50;99.90;;;;;;4903776;29;20210;-88
2022/09/22 03:03:22;;;;;;;7.20;2.60;;;9.50;99.90;;;;;;4920839;29;20174;-88
2022/09/22 03:05:49;;;;;;;4.13;2.17;;;9.50;99.90;;;;;;4920279;29;20618;-91
2022/09/22 03:08:15;;;;;;;7.13;2.78;;;9.40;99.90;;;;;;4922494;29;20181;-87
2022/09/22 03:10:41;;;;;;;7.53;2.97;;;9.40;99.90;;;;;;4922255;29;20189;-87
2022/09/22 03:13:07;;;;;;;6.97;2.70;;;9.30;99.90;;;;;;4921856;29;20182;-89
2022/09/22 03:15:33;;;;;;;5.63;2.80;;;9.30;99.90;;;;;;4939055;29;20653;-90
2022/09/22 03:17:58;;;;;;;7.35;2.80;;;9.20;99.90;;;;;;4922472;29;20201;-90
2022/09/22 03:20:24;;;;;;;8.05;2.90;;;9.20;99.90;;;;;;4922032;29;20185;-87
2022/09/22 03:22:50;;;;;;;5.22;2.78;;;9.20;99.90;;;;;;4922148;29;20186;-87
2022/09/22 03:25:15;;;;;;;5.70;2.47;;;9.20;99.90;;;;;;4921310;29;20224;-86
2022/09/22 03:27:41;;;;;;;6.07;2.70;;;9.20;99.90;;;;;;4922009;29;20280;-86
2022/09/22 03:30:08;;;;;;;6.33;2.40;;;9.20;99.90;;;;;;4938946;29;20173;-87
2022/09/22 03:32:34;;;;;;;13.65;2.60;;;9.20;99.90;;;;;;4921995;29;20281;-87
2022/09/22 03:35:00;;;;;;;4.15;2.25;;;9.10;99.90;;;;;;4921425;29;20226;-87
2022/09/22 03:37:26;;;;;;;5.72;2.25;;;9.10;99.90;;;;;;4939041;29;20189;-88
2022/09/22 03:39:52;;;;;;;7.28;2.55;;;9.00;99.90;;;;;;4921926;29;20214;-88
2022/09/22 03:42:17;;;;;;;4.65;2.55;;;8.90;99.90;;;;;;4938874;29;20182;-91
2022/09/22 03:44:43;;;;;;;8.98;2.35;;;8.90;99.90;;;;;;4938542;29;20929;-88
2022/09/22 03:47:12;;;;;;;4.60;2.10;;;8.90;99.90;;;;;;4921753;29;20241;-88
2022/09/22 03:49:37;;;;;;;12.23;2.55;;;8.90;99.90;;;;;;4921689;29;20513;-89
2022/09/22 03:52:03;;;;;;;8.00;2.80;;;8.90;99.90;;;;;;4938762;29;20181;-88
2022/09/22 03:54:29;;;;;;;6.43;2.50;;;8.90;99.90;;;;;;4921748;29;20184;-88
2022/09/22 03:56:56;;;;;;;5.03;2.33;;;8.80;99.90;;;;;;4921583;29;20178;-88
2022/09/22 03:59:22;;;;;;;7.53;2.58;;;8.70;99.90;;;;;;4921415;29;20238;-88
2022/09/22 04:01:47;;;;;;;4.90;2.55;;;8.60;99.90;;;;;;4921660;29;20182;-90
2022/09/22 04:04:13;;;;;;;7.68;2.40;;;8.60;99.90;;;;;;4921098;29;20232;-90
2022/09/22 04:06:40;;;;;;;8.50;2.67;;;8.50;99.90;;;;;;4921583;29;20210;-88
2022/09/22 04:09:06;;;;;;;5.63;2.93;;;8.60;99.90;;;;;;4921637;29;20175;-90
2022/09/22 04:11:31;;;;;;;8.93;2.47;;;8.60;99.90;;;;;;4921553;29;20233;-91
2022/09/22 04:13:58;;;;;;;5.80;2.57;;;8.60;99.90;;;;;;4921374;29;20181;-94
2022/09/22 04:16:24;;;;;;;4.80;2.63;;;8.60;99.90;;;;;;4921537;29;20181;-91
2022/09/22 04:18:50;;;;;;;5.38;2.42;;;8.70;99.90;;;;;;4921529;29;20181;-89
2022/09/22 04:21:16;;;;;;;7.83;2.40;;;8.50;99.90;;;;;;4921086;29;20209;-93
2022/09/22 04:23:41;;;;;;;4.67;2.43;;;8.50;99.90;;;;;;4921276;29;20208;-92
2022/09/22 04:26:09;;;;;;;7.67;3.03;;;8.50;99.90;;;;;;4921006;29;20645;-91
2022/09/22 04:28:35;;;;;;;3.67;2.40;;;8.50;99.90;;;;;;4920995;29;20182;-88
2022/09/22 04:31:00;;;;;;;4.50;2.60;;;8.50;99.90;;;;;;4920548;29;20237;-87
2022/09/22 04:33:26;;;;;;;7.53;3.00;;;8.60;99.90;;;;;;4920733;29;20640;-87
2022/09/22 04:35:53;;;;;;;5.17;2.77;;;8.50;99.90;;;;;;4920590;29;20629;-89
2022/09/22 04:38:19;;;;;;;3.33;2.00;;;8.50;99.90;;;;;;4921065;29;20189;-89
2022/09/22 04:40:45;;;;;;;4.50;2.57;;;8.50;99.90;;;;;;4937997;29;20245;-88
2022/09/22 04:43:11;;;;;;;6.33;2.43;;;8.30;99.90;;;;;;4921031;29;20245;-89
2022/09/22 04:45:37;;;;;;;8.97;2.60;;;8.30;99.90;;;;;;4920520;29;20206;-88
2022/09/22 04:48:04;;;;;;;6.27;2.43;;;8.30;99.90;;;;;;4921119;29;20186;-93
2022/09/22 04:50:30;;;;;;;5.53;2.60;;;8.20;99.90;;;;;;4920447;29;20264;-87
2022/09/22 04:52:56;;;;;;;4.17;2.70;;;8.10;99.90;;;;;;4920834;29;20582;-89
2022/09/22 04:55:24;;;;;;;9.75;2.60;;;8.20;99.90;;;;;;4937535;29;20178;-88
2022/09/22 04:57:56;;;;;;;5.30;2.60;;;8.00;99.90;;;;;;4920744;29;20660;-88
2022/09/22 05:00:24;;;;;;;5.60;2.67;;;8.00;99.90;;;;;;4920618;29;20190;-87
2022/09/22 05:02:50;;;;;;;4.37;2.30;;;8.00;99.90;;;;;;4920542;29;20189;-89
2022/09/22 05:05:16;;;;;;;4.00;2.43;;;8.10;99.90;;;;;;4920069;29;20245;-88
2022/09/22 05:07:47;;;;;;;3.87;2.40;;;8.10;99.90;;;;;;4937431;29;20685;-90
2022/09/22 05:10:16;;;;;;;3.83;2.40;;;7.90;99.90;;;;;;4920553;29;20209;-89
2022/09/22 05:12:43;;;;;;;8.00;2.67;;;7.90;99.90;;;;;;4937768;29;20318;-91
2022/09/22 05:15:11;;;;;;;7.53;1.83;;;7.90;99.90;;;;;;4920557;29;20178;-88
2022/09/22 05:17:45;;;;;;;2.90;2.10;;;8.00;99.90;;;;;;4920647;29;20205;-88
2022/09/22 05:20:11;;;;;;;3.97;2.10;;;8.00;99.90;;;;;;4937120;29;20241;-88
2022/09/22 05:22:41;;;;;;;2.47;2.17;;;7.90;99.90;;;;;;4920211;29;20237;-87
2022/09/22 05:25:13;;;;;;;12.73;2.53;;;7.90;99.90;;;;;;4920104;29;20628;-92
2022/09/22 05:27:50;;;;;;;2.93;1.50;;;7.90;99.90;;;;;;4920397;29;20189;-87
2022/09/22 05:30:17;;;;;;;3.07;1.90;;;7.80;99.90;;;;;;4920431;29;20265;-87
2022/09/22 05:32:44;;;;;;;5.47;2.50;;;8.00;99.90;;;;;;4920440;29;20536;-89
2022/09/22 05:35:16;;;;;;;5.80;2.40;;;7.90;99.90;;;;;;4919921;29;20193;-89
2022/09/22 05:37:43;;;;;;;5.37;2.30;;;7.80;99.90;;;;;;4920454;29;20184;-88
2022/09/22 05:40:09;;;;;;;3.73;2.20;;;7.80;99.90;;;;;;4920448;29;20206;-89
2022/09/22 05:42:42;;;;;;;4.87;2.33;;;7.80;99.90;;;;;;4920165;29;20182;-88
2022/09/22 05:45:08;;;;;;;3.73;2.20;;;7.70;99.90;;;;;;4920050;29;20561;-91
2022/09/22 05:47:34;;;;;;;4.63;2.10;;;7.70;99.90;;;;;;4920525;29;20194;-88
2022/09/22 05:50:00;;;;;;;3.10;2.03;;;7.70;99.90;;;;;;4923739;29;20245;-88
2022/09/22 05:52:25;;;;;;;2.43;1.87;;;7.70;99.90;;;;;;4924178;29;20554;-88
2022/09/22 05:54:51;;;;;;;5.83;2.50;;;7.80;99.90;;;;;;4924043;29;20225;-87
2022/09/22 05:57:24;;;;;;;5.60;2.60;;;8.10;99.90;;;;;;4941068;29;20189;-90
2022/09/22 05:59:54;;;;;;;5.43;2.53;;;8.10;99.90;;;;;;4923841;29;20202;-88
2022/09/22 06:02:22;;;;;;;4.50;2.65;;;8.00;99.90;;;;;;4923882;29;20327;-87
2022/09/22 06:04:48;;;;;;;5.90;2.80;;;8.00;99.90;;;;;;4923308;29;20242;-94
2022/09/22 06:07:13;;;;;;;6.67;2.50;;;8.10;99.90;;;;;;4923782;29;20561;-88
2022/09/22 06:09:39;;;;;;;4.83;2.50;;;8.00;99.90;;;;;;4923812;29;20177;-88
2022/09/22 06:12:07;;;;;;;4.53;2.90;;;8.00;99.90;;;;;;4940845;29;20621;-88
2022/09/22 06:14:33;;;;;;;4.33;2.53;;;8.00;99.90;;;;;;4923514;29;20691;-93
2022/09/22 06:17:10;;;;;;;4.63;2.33;;;8.00;99.90;;;;;;4923563;29;20209;-88
2022/09/22 06:19:37;;;;;;;3.97;2.40;;;8.10;99.90;;;;;;4923238;29;20174;-88
2022/09/22 06:22:03;;;;;;;3.60;2.57;;;8.10;99.90;;;;;;4923529;29;20333;-90
2022/09/22 06:24:29;;;;;;;8.93;2.57;;;8.10;99.90;;;;;;4940433;29;20262;-91
2022/09/22 06:26:55;;;;;;;7.18;2.50;;;8.20;99.90;;;;;;4940490;29;20669;-90
2022/09/22 06:29:20;;;;;;;7.65;2.75;;;8.20;99.90;;;;;;4923350;29;20572;-93
2022/09/22 06:31:47;;;;;;;6.23;2.67;;;8.20;99.90;;;;;;4923281;29;20655;-91
2022/09/22 06:34:13;;;;;;;5.55;2.50;;;8.30;99.90;;;;;;4923240;29;20186;-91
2022/09/22 06:36:41;;;;;;;7.33;2.77;;;8.30;99.90;;;;;;4923379;29;20184;-93
2022/09/22 06:39:10;;;;;;;4.28;2.33;;;8.40;99.90;;;;;;4923601;29;20188;-94
2022/09/22 06:41:36;;;;;;;5.57;2.60;;;8.50;99.90;;;;;;4923257;29;20193;-92
2022/09/22 06:44:04;;;;;;;6.72;2.70;;;8.50;99.90;;;;;;4923442;29;20182;-89
2022/09/22 06:46:32;;;;;;;4.20;2.60;;;8.60;99.90;;;;;;4923549;29;20209;-89
2022/09/22 06:48:59;;;;;;;6.22;2.60;;;8.70;99.90;;;;;;4922527;29;20182;-91
2022/09/22 06:51:31;;;;;;;5.93;2.65;;;8.70;99.90;;;;;;4923330;29;20614;-89
2022/09/22 06:53:58;;;;;;;8.10;3.17;;;8.80;99.90;;;;;;4923257;29;20182;-89
2022/09/22 06:56:26;;;;;;;6.47;2.90;;;8.90;99.90;;;;;;4922832;29;20242;-87
2022/09/22 06:58:55;;;;;;;6.47;2.53;;;8.90;99.90;;;;;;4940143;29;20681;-88
2022/09/22 07:01:22;;;;;;;4.45;2.45;;;9.10;99.90;;;;;;4921949;29;20197;-88
2022/09/22 07:03:49;;;;;;;9.85;2.53;;;9.10;99.90;;;;;;4922465;29;20185;-91
2022/09/22 07:06:17;;;;;;;7.70;2.53;;;9.20;99.90;;;;;;4939573;29;20201;-89
2022/09/22 07:08:47;;;;;;;5.32;2.78;;;9.30;99.90;;;;;;4922828;29;20182;-89
2022/09/22 07:11:16;;;;;;;3.72;2.00;;;9.40;99.90;;;;;;4923026;29;20326;-95
2022/09/22 07:13:44;;;;;;;3.58;1.90;;;9.50;99.90;;;;;;4922642;29;20177;-89
2022/09/22 07:16:16;;;;;;;3.20;2.13;;;9.50;99.90;;;;;;4922465;29;20186;-89
2022/09/22 07:18:57;;;;;;;1.70;1.55;;;9.60;99.90;;;;;;4939552;29;20261;-88
2022/09/22 07:21:31;;;;;;;9.65;2.40;;;9.70;99.90;;;;;;4922246;29;20606;-91
2022/09/22 07:23:57;;;;;;;2.67;2.05;;;9.80;99.90;;;;;;4922362;29;20181;-88
2022/09/22 07:26:32;;;;;;;4.03;1.83;;;9.90;99.90;;;;;;4922439;29;20224;-94
2022/09/22 07:29:07;;;;;;;5.03;1.83;;;10.00;99.90;;;;;;4922493;29;20210;-92
2022/09/22 07:31:35;;;;;;;7.97;2.60;;;10.00;99.90;;;;;;4922544;29;20181;-94
2022/09/22 07:34:01;;;;;;;7.25;2.70;;;10.10;99.90;;;;;;4922650;29;20189;-93
2022/09/22 07:36:29;;;;;;;5.90;2.38;;;10.20;99.90;;;;;;4939339;29;20182;-95
2022/09/22 07:39:06;;;;;;;7.43;2.80;;;10.30;99.90;;;;;;4922537;29;20237;-95
2022/09/22 07:41:40;;;;;;;7.10;2.80;;;10.30;99.90;;;;;;4939448;29;20170;-91
2022/09/22 07:46:52;;;;;;;15.27;2.55;;;10.40;99.90;;;;;;4939626;29;20596;-91
2022/09/22 07:49:21;;;;;;;6.07;2.60;;;10.50;99.90;;;;;;4922392;29;20182;-90
2022/09/22 07:51:53;;;;;;;4.97;2.17;;;10.50;99.90;;;;;;4922608;29;20632;-91
2022/09/22 07:54:20;;;;;;;6.40;2.17;;;10.60;99.90;;;;;;4921757;29;20169;-88
2022/09/22 07:56:46;;;;;;;3.40;1.80;;;10.70;99.90;;;;;;4922844;29;20835;-93
2022/09/22 07:59:14;;;;;;;5.72;2.67;;;10.70;99.90;;;;;;4923397;29;20192;-88
2022/09/22 08:01:47;;;;;;;6.80;2.72;;;10.80;99.90;;;;;;4921705;29;20178;-91
2022/09/22 08:04:21;;;;;;;6.28;2.88;;;10.90;99.90;;;;;;4938403;29;20237;-92
2022/09/22 08:06:50;;;;;;;11.00;3.17;;;11.00;99.90;;;;;;4921642;29;20216;-92
2022/09/22 08:09:18;;;;;;;9.05;2.53;;;11.00;99.90;;;;;;4921625;29;20189;-92
2022/09/22 08:11:47;;;;;;;9.90;2.85;;;11.00;99.90;;;;;;4921387;29;20193;-93
2022/09/22 08:14:16;;;;;;;6.97;2.28;;;11.10;99.90;;;;;;4921147;29;20189;-93
2022/09/22 08:16:42;;;;;;;9.38;2.78;;;11.20;99.90;;;;;;4921175;29;20213;-86
2022/09/22 08:19:13;;;;;;;6.45;2.60;;;11.30;99.90;;;;;;4938406;29;20170;-87
2022/09/22 08:21:44;;;;;;;5.93;2.08;;;11.40;99.90;;;;;;4920904;29;20182;-87
2022/09/22 08:24:12;;;;;;;7.70;2.47;;;11.50;99.90;;;;;;4920967;29;20217;-90
2022/09/22 08:26:39;;;;;;;5.85;2.83;;;11.50;99.90;;;;;;4921035;29;20205;-93
2022/09/22 08:29:06;;;;;;;5.60;2.47;;;11.50;99.90;;;;;;4938126;29;20174;-91
2022/09/22 08:31:34;;;;;;;7.63;2.45;;;11.60;99.90;;;;;;4938127;29;20179;-91
2022/09/22 08:34:00;;;;;;;7.70;2.58;;;11.70;99.90;;;;;;4935276;29;20189;-89
2022/09/22 08:36:26;;;;;;;5.43;2.05;;;11.80;99.90;;;;;;4901704;29;20213;-90
2022/09/22 08:39:00;;;;;;;5.28;2.10;;;11.90;99.90;;;;;;4917847;29;20187;-92
2022/09/22 08:41:38;;;;;;;5.47;1.83;;;12.00;99.90;;;;;;4902120;29;20182;-90
2022/09/22 08:44:09;;;;;;;5.50;2.00;;;12.10;99.90;;;;;;4902049;29;20177;-90
2022/09/22 08:46:46;;;;;;;6.05;2.10;;;12.10;99.90;;;;;;4901771;29;20206;-93
2022/09/22 08:52:40;;;;;;;6.65;2.03;;;12.30;99.90;;;;;;4919296;29;20185;-91
2022/09/22 08:55:18;;;;;;;4.85;1.73;;;12.40;99.90;;;;;;4901920;29;20273;-93
2022/09/22 08:58:07;;;;;;;5.30;1.75;;;12.40;99.90;;;;;;4902133;29;20841;-93
2022/09/22 09:00:42;;;;;;;5.57;1.80;;;12.50;99.90;;;;;;4902199;29;20214;-89
2022/09/22 09:03:35;;;;;;;3.78;1.35;;;12.60;99.90;;;;;;4901796;29;20209;-85
2022/09/22 09:06:12;;;;;;;5.45;1.73;;;12.70;99.90;;;;;;4919589;29;20269;-94
2022/09/22 09:09:06;;;;;;;3.55;1.67;;;12.70;99.90;;;;;;4938502;29;20232;-94
2022/09/22 09:11:56;;;;;;;3.92;1.38;;;12.90;99.90;;;;;;4938196;29;20178;-93
2022/09/22 09:14:37;;;;;;;4.93;1.95;;;12.90;99.90;;;;;;4921456;29;20528;-94
2022/09/22 09:17:09;;;;;;;3.25;1.20;;;13.00;99.90;;;;;;4921805;29;20182;-94
2022/09/22 09:20:15;;;;;;;6.00;1.83;;;13.10;99.90;;;;;;4938710;29;20226;-95
2022/09/22 09:22:49;;;;;;;6.35;1.77;;;13.10;99.90;;;;;;4913812;29;20272;-96
2022/09/22 09:25:21;;;;;;;9.90;1.83;;;13.30;99.90;;;;;;4937677;29;20196;-94
2022/09/22 09:27:53;;;;;;;2.95;1.40;;;13.30;99.90;;;;;;4920086;29;20232;-87
2022/09/22 09:30:22;;;;;;;6.53;1.45;;;13.40;99.90;;;;;;4936875;29;20621;-88
2022/09/22 09:33:13;;;;;;;5.68;1.88;;;13.40;99.90;;;;;;4920023;29;20186;-92
2022/09/22 09:35:47;;;;;;;5.88;1.92;;;13.50;99.90;;;;;;4919989;29;20205;-90
2022/09/22 09:38:20;;;;;;;8.35;1.92;;;13.60;99.90;;;;;;4920214;29;20180;-88
2022/09/22 09:40:53;;;;;;;7.20;2.17;;;13.70;99.90;;;;;;4919777;29;20624;-87
2022/09/22 09:43:22;;;;;;;3.85;1.95;;;13.80;99.90;;;;;;4919924;29;20261;-87
2022/09/22 09:46:15;;;;;;;5.65;2.00;;;13.80;99.90;;;;;;4920028;29;20308;-94
2022/09/22 09:49:01;;;;;;;8.10;2.80;;;13.90;99.90;;;;;;4937091;29;20170;-88
2022/09/22 09:51:27;;;;;;;5.10;2.63;;;14.00;99.90;;;;;;4919796;29;20257;-89
2022/09/22 09:53:56;;;;;;;7.50;2.40;;;14.00;99.90;;;;;;4919804;29;20491;-94
2022/09/22 09:56:30;;;;;;;5.78;2.10;;;14.10;99.90;;;;;;4920332;29;20174;-87
2022/09/22 10:01:49;;;;;;;7.57;2.28;;;14.20;99.90;;;;;;4937823;29;20265;-90
2022/09/22 10:04:37;;;;;;;6.13;1.60;;;14.30;99.90;;;;;;4919631;29;20673;-87
2022/09/22 10:07:22;;;;;;;5.13;1.65;;;14.40;99.90;;;;;;4919908;29;20300;-93
2022/09/22 10:09:50;;;;;;;3.85;1.80;;;14.50;99.90;;;;;;4919923;29;20226;-90
2022/09/22 10:12:24;;;;;;;4.90;1.50;;;14.60;99.90;;;;;;4919827;29;20816;-89
2022/09/22 10:14:56;;;;;;;5.82;1.88;;;14.70;99.90;;;;;;4919725;29;20185;-88
2022/09/22 10:17:32;;;;;;;3.08;1.50;;;14.70;99.90;;;;;;4937091;29;20199;-90
2022/09/22 10:20:25;;;;;;;4.07;1.40;;;14.70;99.90;;;;;;4936978;29;20176;-94
2022/09/22 10:22:51;;;;;;;4.93;1.35;;;14.80;99.90;;;;;;4908384;29;20190;-91
2022/09/22 10:25:31;;;;;;;3.13;1.00;;;14.90;99.90;;;;;;4919968;29;20186;-90
2022/09/22 10:28:13;;;;;;;3.28;1.20;;;14.90;99.90;;;;;;4920216;29;20182;-88
2022/09/22 10:30:40;;;;;;;3.35;1.35;;;15.00;99.90;;;;;;4936781;29;20166;-87
2022/09/22 10:33:20;;;;;;;4.45;1.50;;;15.10;99.90;;;;;;4936660;29;20171;-88
2022/09/22 10:35:52;;;;;;;6.75;1.92;;;15.20;99.90;;;;;;4922335;29;20200;-89
2022/09/22 10:38:23;;;;;;;5.05;1.30;;;15.20;99.90;;;;;;4923667;29;20265;-90
2022/09/22 10:40:59;;;;;;;2.88;1.02;;;15.20;99.90;;;;;;4923248;29;20213;-92
2022/09/22 10:43:47;;;;;;;4.07;1.20;;;15.30;99.90;;;;;;4939932;29;20214;-87
2022/09/22 10:46:19;;;;;;;4.25;1.13;;;15.30;99.90;;;;;;4923204;29;20213;-89
2022/09/22 10:49:07;;;;;;;3.28;1.52;;;15.30;99.90;;;;;;4923061;29;20197;-89
2022/09/22 10:51:56;;;;;;;6.85;1.50;;;15.40;99.90;;;;;;4922369;29;20181;-89
2022/09/22 10:54:31;;;;;;;2.05;1.10;;;15.60;99.90;;;;;;4922100;29;20640;-90
2022/09/22 10:57:09;;;;;;;2.10;0.70;;;15.60;99.90;;;;;;4922973;29;20213;-88
2022/09/22 10:59:44;;;;;;;1.88;0.90;;;15.70;99.90;;;;;;4922955;29;20524;-87
2022/09/22 11:03:04;;;;;;;5.15;0.90;;;15.80;99.90;;;;;;4923137;29;20178;-87
2022/09/22 11:12:18;;;;;;;2.08;0.70;;;16.10;99.90;;;;;;4920910;29;20174;-90
2022/09/22 11:15:15;;;;;;;2.30;0.90;;;16.20;99.80;;;;;;4903810;29;20182;-93
2022/09/22 11:17:59;;;;;;;2.40;0.80;;;16.30;99.90;;;;;;4888372;29;20190;-88
2022/09/22 11:20:40;;;;;;;4.30;1.00;;;16.30;99.60;;;;;;4903521;29;20622;-89
2022/09/22 11:23:24;;;;;;;5.55;0.95;;;16.10;99.90;;;;;;4903806;29;20218;-88
2022/09/22 11:26:05;;;;;;;2.15;0.80;;;15.90;99.90;;;;;;4904361;29;20237;-87
2022/09/22 11:29:05;;;;;;;3.83;0.93;;;15.70;99.90;;;;;;4904567;29;20190;-89
2022/09/22 11:31:40;;;;;;;4.15;0.85;;;15.60;99.90;;;;;;4904107;29;20622;-89
2022/09/22 11:34:21;;;;;;;3.58;0.90;;;15.40;99.90;;;;;;4923273;29;20196;-88
2022/09/22 11:37:24;;;;;;;4.05;1.17;;;15.20;99.90;;;;;;4903828;29;20194;-90
2022/09/22 11:40:33;;;;;;;3.60;1.08;;;15.10;99.90;;;;;;4905370;29;20178;-90
2022/09/22 11:43:19;;;;;;;1.80;0.77;;;15.00;99.90;;;;;;4905147;29;20190;-91
2022/09/22 11:46:34;;;;;;;4.28;1.00;;;15.10;99.90;;;;;;4921011;29;20194;-89
2022/09/22 11:49:06;;;;;;;2.38;0.90;;;15.20;99.90;;;;;;4856528;29;20570;-88
2022/09/22 11:51:44;;;;;;;1.33;0.70;;;15.30;99.90;;;;;;4905312;29;20179;-87
2022/09/22 11:54:19;;;;;;;2.60;0.75;;;15.30;99.90;;;;;;4906977;29;20178;-87
2022/09/22 11:56:57;;;;;;;3.28;0.82;;;15.40;99.90;;;;;;4904532;29;20204;-88
2022/09/22 11:59:26;;;;;;;0.95;0.60;;;15.60;99.90;;;;;;4905388;29;20174;-88
2022/09/22 12:01:57;;;;;;;0.95;0.70;;;15.50;99.90;;;;;;4921886;29;20198;-88
2022/09/22 12:04:47;;;;;;;2.75;0.90;;;15.50;99.90;;;;;;4905370;29;20268;-87
2022/09/22 12:07:23;;;;;;;1.65;0.80;;;15.40;99.90;;;;;;4920518;29;20249;-86
2022/09/22 12:10:00;;;;;;;1.10;0.70;;;15.30;99.90;;;;;;4905663;29;20229;-89
2022/09/22 12:12:29;;;;;;;1.70;0.68;;;15.50;99.90;;;;;;4924354;29;20239;-88
2022/09/22 12:15:19;;;;;;;1.13;0.60;;;15.80;99.90;;;;;;4905412;29;20183;-87
2022/09/22 12:18:09;;;;;;;1.02;0.50;;;16.10;99.90;;;;;;4890587;29;20202;-88
2022/09/22 12:21:05;;;;;;;4.80;0.60;;;16.10;99.90;;;;;;4921795;29;20215;-87
2022/09/22 12:23:44;;;;;;;1.25;0.88;;;16.00;98.60;;;;;;4902809;29;20202;-89
2022/09/22 12:26:12;;;;;;;1.40;0.63;;;16.00;99.90;;;;;;4902818;29;20285;-89
2022/09/22 12:28:44;;;;;;;1.50;0.60;;;16.20;99.00;;;;;;4903270;29;20194;-92
2022/09/22 12:31:35;;;;;;;1.08;0.68;;;16.30;98.30;;;;;;4902748;29;20235;-92
2022/09/22 12:34:03;;;;;;;1.42;0.60;;;16.20;98.40;;;;;;4923853;29;20625;-91
2022/09/22 12:36:39;;;;;;;1.23;0.50;;;16.10;98.50;;;;;;4925980;29;20186;-96
2022/09/22 12:39:10;;;;;;;1.60;0.65;;;15.90;96.70;;;;;;4939772;29;20185;-90
2022/09/22 12:41:57;;;;;;;1.15;0.60;;;15.80;96.50;;;;;;4922257;29;20281;-92
2022/09/22 12:44:30;;;;;;;2.38;0.50;;;15.80;98.80;;;;;;4943740;29;20186;-94
2022/09/22 12:47:15;;;;;;;1.52;0.55;;;15.60;99.70;;;;;;4942268;29;20254;-96
2022/09/22 12:49:57;;;;;;;1.02;0.50;;;15.60;99.70;;;;;;4921008;29;20204;-90
2022/09/22 12:53:02;;;;;;;2.00;0.40;;;15.60;99.90;;;;;;4920848;29;20178;-95
2022/09/22 12:55:40;;;;;;;1.48;0.40;;;15.70;99.90;;;;;;4926874;29;20194;-89
2022/09/22 12:58:21;;;;;;;0.82;0.45;;;15.90;99.80;;;;;;4939837;29;20158;-87
2022/09/22 13:01:15;;;;;;;3.33;0.93;;;16.20;98.40;;;;;;4922433;29;20185;-87
2022/09/22 13:03:48;;;;;;;2.33;0.70;;;16.30;99.00;;;;;;4923814;29;20237;-91
2022/09/22 13:06:23;;;;;;;2.08;0.73;;;16.40;99.30;;;;;;4924090;29;20229;-89
2022/09/22 13:08:51;;;;;;;2.58;0.70;;;16.60;99.90;;;;;;4923862;29;20209;-96
2022/09/22 13:11:59;;;;;;;0.90;0.50;;;17.00;99.90;;;;;;4943281;29;20256;-90
2022/09/22 13:14:56;;;;;;;2.20;1.10;;;17.30;98.80;;;;;;4925492;29;20177;-93
2022/09/22 13:17:39;;;;;;;2.08;1.25;;;17.40;97.10;;;;;;4925027;29;20205;-88
2022/09/22 13:20:30;;;;;;;1.83;1.10;;;17.30;96.80;;;;;;4924974;29;20180;-92
2022/09/22 13:23:10;;;;;;;1.60;0.63;;;16.90;97.30;;;;;;4914568;29;20190;-94
2022/09/22 13:25:37;;;;;;;0.40;0.40;;;16.80;97.30;;;;;;4943441;29;20181;-93
2022/09/22 13:28:17;;;;;;;1.55;0.57;;;16.70;97.60;;;;;;4925418;29;20571;-91
2022/09/22 13:30:45;;;;;;;0.70;0.40;;;16.50;97.70;;;;;;4923110;29;20182;-89
2022/09/22 13:33:25;;;;;;;0.85;0.50;;;16.40;99.30;;;;;;4926674;29;20181;-91
2022/09/22 13:36:15;;;;;;;2.15;0.50;;;16.50;98.60;;;;;;4909924;29;20294;-94
2022/09/22 13:38:44;;;;;;;0.70;0.50;;;16.50;99.00;;;;;;4924783;29;20175;-92
2022/09/22 13:41:18;;;;;;;0.80;0.50;;;16.40;99.10;;;;;;4922354;29;20337;-90